Terminal Aerodrome Forecast
Issued by NWS

Home | Current Version | Previous Version | Graphics & Text | Print | Product List | Glossary On
Versions: 1 2 3 4 5 6 7 8 9 10 11 12 13 14 15 16 17 18 19 20 21 22 23 24 25 26 27 28 29 30 31 32 33 34 35 36 37 38 39 40 41 42 43 44 45 46 47 48 49 50
000
FTUS45 KBOU 141120
TAFBJC
TAF
KBJC 141120Z 1412/1512 17008KT P6SM SCT200
     FM141500 25007KT P6SM SCT120 BKN180
     FM141800 28015KT P6SM SCT120 BKN180
     FM142000 30020G30KT P6SM SCT080 BKN120
      TEMPO 1420/1424 30025G40KT
     FM150200 30015KT P6SM BKN080 BKN120
     FM150500 28012KT P6SM SCT120 SCT220=

USA.gov is the U.S. government's official web portal to all federal, state and local government web resources and services.